sensor_id;sensor_type;location;lat;lon;timestamp;P1;durP1;ratioP1;P2;durP2;ratioP2
8407;SDS011;4241;48.452;9.216;2023-09-19T00:00:20;470.03;;;194.50;;
8407;SDS011;4241;48.452;9.216;2023-09-19T00:02:54;469.03;;;191.50;;
8407;SDS011;4241;48.452;9.216;2023-09-19T00:05:24;469.20;;;191.40;;
8407;SDS011;4241;48.452;9.216;2023-09-19T00:07:52;470.37;;;193.10;;
8407;SDS011;4241;48.452;9.216;2023-09-19T00:10:20;471.27;;;192.87;;
8407;SDS011;4241;48.452;9.216;2023-09-19T00:12:49;467.63;;;189.87;;
8407;SDS011;4241;48.452;9.216;2023-09-19T00:15:17;469.40;;;189.83;;
8407;SDS011;4241;48.452;9.216;2023-09-19T00:17:46;468.63;;;188.73;;
8407;SDS011;4241;48.452;9.216;2023-09-19T00:20:13;465.93;;;189.40;;
8407;SDS011;4241;48.452;9.216;2023-09-19T00:22:42;466.53;;;187.87;;
8407;SDS011;4241;48.452;9.216;2023-09-19T00:25:09;469.87;;;193.73;;
8407;SDS011;4241;48.452;9.216;2023-09-19T00:27:37;465.90;;;186.40;;
8407;SDS011;4241;48.452;9.216;2023-09-19T00:30:07;468.57;;;191.67;;
8407;SDS011;4241;48.452;9.216;2023-09-19T00:32:39;467.10;;;190.23;;
8407;SDS011;4241;48.452;9.216;2023-09-19T00:35:08;471.03;;;190.97;;
8407;SDS011;4241;48.452;9.216;2023-09-19T00:37:35;465.77;;;186.57;;
8407;SDS011;4241;48.452;9.216;2023-09-19T00:40:03;466.30;;;185.80;;
8407;SDS011;4241;48.452;9.216;2023-09-19T00:42:31;465.70;;;187.53;;
8407;SDS011;4241;48.452;9.216;2023-09-19T00:44:58;468.00;;;190.37;;
8407;SDS011;4241;48.452;9.216;2023-09-19T00:47:28;471.20;;;191.67;;
8407;SDS011;4241;48.452;9.216;2023-09-19T00:49:55;468.97;;;191.10;;
8407;SDS011;4241;48.452;9.216;2023-09-19T00:52:24;467.23;;;190.20;;
8407;SDS011;4241;48.452;9.216;2023-09-19T00:54:52;467.80;;;190.23;;
8407;SDS011;4241;48.452;9.216;2023-09-19T00:57:22;467.57;;;188.07;;
8407;SDS011;4241;48.452;9.216;2023-09-19T00:59:50;469.17;;;190.47;;
8407;SDS011;4241;48.452;9.216;2023-09-19T01:02:19;472.67;;;194.23;;
8407;SDS011;4241;48.452;9.216;2023-09-19T01:04:47;469.60;;;191.17;;
8407;SDS011;4241;48.452;9.216;2023-09-19T01:07:14;466.60;;;189.07;;
8407;SDS011;4241;48.452;9.216;2023-09-19T01:09:43;467.43;;;186.83;;
8407;SDS011;4241;48.452;9.216;2023-09-19T01:12:10;470.83;;;193.03;;
8407;SDS011;4241;48.452;9.216;2023-09-19T01:14:44;467.30;;;188.97;;
8407;SDS011;4241;48.452;9.216;2023-09-19T01:17:24;471.33;;;193.07;;
8407;SDS011;4241;48.452;9.216;2023-09-19T01:20:14;465.97;;;186.13;;
8407;SDS011;4241;48.452;9.216;2023-09-19T01:22:48;471.07;;;194.03;;
8407;SDS011;4241;48.452;9.216;2023-09-19T01:28:39;467.77;;;190.47;;
8407;SDS011;4241;48.452;9.216;2023-09-19T01:31:20;468.00;;;192.30;;
8407;SDS011;4241;48.452;9.216;2023-09-19T01:33:57;474.77;;;198.00;;
8407;SDS011;4241;48.452;9.216;2023-09-19T01:36:28;468.80;;;189.53;;
8407;SDS011;4241;48.452;9.216;2023-09-19T01:38:59;468.00;;;190.87;;
8407;SDS011;4241;48.452;9.216;2023-09-19T01:44:24;470.17;;;194.10;;
8407;SDS011;4241;48.452;9.216;2023-09-19T01:46:59;469.47;;;189.27;;
8407;SDS011;4241;48.452;9.216;2023-09-19T01:49:33;465.87;;;188.70;;
8407;SDS011;4241;48.452;9.216;2023-09-19T01:52:11;467.07;;;189.33;;
8407;SDS011;4241;48.452;9.216;2023-09-19T01:54:41;467.13;;;190.43;;
8407;SDS011;4241;48.452;9.216;2023-09-19T01:57:14;466.50;;;189.17;;
8407;SDS011;4241;48.452;9.216;2023-09-19T01:59:45;467.63;;;190.47;;
8407;SDS011;4241;48.452;9.216;2023-09-19T02:02:18;468.47;;;191.43;;
8407;SDS011;4241;48.452;9.216;2023-09-19T02:04:47;468.70;;;191.23;;
8407;SDS011;4241;48.452;9.216;2023-09-19T02:07:15;469.40;;;191.17;;
8407;SDS011;4241;48.452;9.216;2023-09-19T02:09:42;468.30;;;189.87;;
8407;SDS011;4241;48.452;9.216;2023-09-19T02:12:09;467.90;;;193.00;;
8407;SDS011;4241;48.452;9.216;2023-09-19T02:14:36;470.87;;;193.47;;
8407;SDS011;4241;48.452;9.216;2023-09-19T02:17:03;467.80;;;189.20;;
8407;SDS011;4241;48.452;9.216;2023-09-19T02:19:33;466.67;;;188.40;;
8407;SDS011;4241;48.452;9.216;2023-09-19T02:22:03;467.73;;;191.17;;
8407;SDS011;4241;48.452;9.216;2023-09-19T02:24:32;467.43;;;189.47;;
8407;SDS011;4241;48.452;9.216;2023-09-19T02:27:00;468.67;;;191.87;;
8407;SDS011;4241;48.452;9.216;2023-09-19T02:29:29;468.10;;;190.13;;
8407;SDS011;4241;48.452;9.216;2023-09-19T02:31:56;468.00;;;189.83;;
8407;SDS011;4241;48.452;9.216;2023-09-19T02:34:23;469.70;;;192.30;;
8407;SDS011;4241;48.452;9.216;2023-09-19T02:36:52;469.60;;;193.17;;
8407;SDS011;4241;48.452;9.216;2023-09-19T02:39:20;469.53;;;193.90;;
8407;SDS011;4241;48.452;9.216;2023-09-19T02:41:47;471.73;;;194.30;;
8407;SDS011;4241;48.452;9.216;2023-09-19T02:44:15;469.87;;;193.93;;
8407;SDS011;4241;48.452;9.216;2023-09-19T02:46:42;468.30;;;193.00;;
8407;SDS011;4241;48.452;9.216;2023-09-19T02:49:09;468.17;;;192.13;;
8407;SDS011;4241;48.452;9.216;2023-09-19T02:51:36;471.93;;;197.33;;
8407;SDS011;4241;48.452;9.216;2023-09-19T02:54:04;469.57;;;193.20;;
8407;SDS011;4241;48.452;9.216;2023-09-19T02:56:33;467.33;;;191.60;;
8407;SDS011;4241;48.452;9.216;2023-09-19T02:59:00;468.00;;;190.70;;
8407;SDS011;4241;48.452;9.216;2023-09-19T03:01:28;468.87;;;191.83;;
8407;SDS011;4241;48.452;9.216;2023-09-19T03:03:55;468.47;;;190.13;;
8407;SDS011;4241;48.452;9.216;2023-09-19T03:06:22;465.77;;;188.07;;
8407;SDS011;4241;48.452;9.216;2023-09-19T03:08:49;469.83;;;194.07;;
8407;SDS011;4241;48.452;9.216;2023-09-19T03:11:18;467.10;;;190.90;;
8407;SDS011;4241;48.452;9.216;2023-09-19T03:13:50;468.17;;;188.70;;
8407;SDS011;4241;48.452;9.216;2023-09-19T03:16:18;469.83;;;191.30;;
8407;SDS011;4241;48.452;9.216;2023-09-19T03:18:46;470.97;;;193.40;;
8407;SDS011;4241;48.452;9.216;2023-09-19T03:21:13;467.30;;;189.33;;
8407;SDS011;4241;48.452;9.216;2023-09-19T03:23:40;472.10;;;190.67;;
8407;SDS011;4241;48.452;9.216;2023-09-19T03:26:08;469.97;;;189.63;;
8407;SDS011;4241;48.452;9.216;2023-09-19T03:28:36;471.13;;;191.60;;
8407;SDS011;4241;48.452;9.216;2023-09-19T03:31:04;468.33;;;190.83;;
8407;SDS011;4241;48.452;9.216;2023-09-19T03:33:32;469.70;;;193.23;;
8407;SDS011;4241;48.452;9.216;2023-09-19T03:35:59;470.70;;;193.87;;
8407;SDS011;4241;48.452;9.216;2023-09-19T03:38:29;469.10;;;192.43;;
8407;SDS011;4241;48.452;9.216;2023-09-19T03:40:57;471.37;;;194.23;;
8407;SDS011;4241;48.452;9.216;2023-09-19T03:43:24;471.17;;;194.60;;
8407;SDS011;4241;48.452;9.216;2023-09-19T03:45:52;476.27;;;202.93;;
8407;SDS011;4241;48.452;9.216;2023-09-19T03:48:20;477.10;;;201.07;;
8407;SDS011;4241;48.452;9.216;2023-09-19T03:50:48;470.47;;;195.27;;
8407;SDS011;4241;48.452;9.216;2023-09-19T03:53:14;476.93;;;201.53;;
8407;SDS011;4241;48.452;9.216;2023-09-19T03:55:44;476.13;;;199.17;;
8407;SDS011;4241;48.452;9.216;2023-09-19T03:58:11;469.77;;;192.17;;
8407;SDS011;4241;48.452;9.216;2023-09-19T04:00:38;469.47;;;192.70;;
8407;SDS011;4241;48.452;9.216;2023-09-19T04:03:06;469.80;;;193.80;;
8407;SDS011;4241;48.452;9.216;2023-09-19T04:05:33;473.07;;;196.27;;
8407;SDS011;4241;48.452;9.216;2023-09-19T04:08:00;470.27;;;192.90;;
8407;SDS011;4241;48.452;9.216;2023-09-19T04:10:27;468.60;;;191.70;;
8407;SDS011;4241;48.452;9.216;2023-09-19T04:12:54;469.50;;;193.23;;
8407;SDS011;4241;48.452;9.216;2023-09-19T04:15:22;472.50;;;195.67;;
8407;SDS011;4241;48.452;9.216;2023-09-19T04:17:49;469.07;;;192.07;;
8407;SDS011;4241;48.452;9.216;2023-09-19T04:20:17;470.87;;;195.40;;
8407;SDS011;4241;48.452;9.216;2023-09-19T04:22:44;469.23;;;192.03;;
8407;SDS011;4241;48.452;9.216;2023-09-19T04:25:12;472.33;;;196.50;;
8407;SDS011;4241;48.452;9.216;2023-09-19T04:27:39;468.63;;;191.97;;
8407;SDS011;4241;48.452;9.216;2023-09-19T04:30:07;467.73;;;189.10;;
8407;SDS011;4241;48.452;9.216;2023-09-19T04:32:36;465.63;;;189.03;;
8407;SDS011;4241;48.452;9.216;2023-09-19T04:35:05;467.20;;;190.33;;
8407;SDS011;4241;48.452;9.216;2023-09-19T04:37:35;464.90;;;186.33;;
8407;SDS011;4241;48.452;9.216;2023-09-19T04:40:04;463.83;;;184.67;;
8407;SDS011;4241;48.452;9.216;2023-09-19T04:42:37;472.97;;;195.17;;
8407;SDS011;4241;48.452;9.216;2023-09-19T04:45:05;465.97;;;186.43;;
8407;SDS011;4241;48.452;9.216;2023-09-19T04:47:32;468.60;;;191.80;;
8407;SDS011;4241;48.452;9.216;2023-09-19T04:49:59;466.43;;;189.70;;
8407;SDS011;4241;48.452;9.216;2023-09-19T04:52:26;463.40;;;185.00;;
8407;SDS011;4241;48.452;9.216;2023-09-19T04:54:54;463.33;;;184.47;;
8407;SDS011;4241;48.452;9.216;2023-09-19T04:57:21;465.07;;;184.87;;
8407;SDS011;4241;48.452;9.216;2023-09-19T04:59:47;462.07;;;183.63;;
8407;SDS011;4241;48.452;9.216;2023-09-19T05:02:15;461.33;;;180.13;;
8407;SDS011;4241;48.452;9.216;2023-09-19T05:04:42;464.33;;;185.03;;
8407;SDS011;4241;48.452;9.216;2023-09-19T05:07:08;464.43;;;184.53;;
8407;SDS011;4241;48.452;9.216;2023-09-19T05:09:35;463.77;;;185.33;;
8407;SDS011;4241;48.452;9.216;2023-09-19T05:12:04;462.63;;;182.97;;
8407;SDS011;4241;48.452;9.216;2023-09-19T05:14:31;461.83;;;183.87;;
8407;SDS011;4241;48.452;9.216;2023-09-19T05:16:58;463.57;;;185.10;;
8407;SDS011;4241;48.452;9.216;2023-09-19T05:19:25;463.33;;;185.37;;
8407;SDS011;4241;48.452;9.216;2023-09-19T05:21:52;464.73;;;182.63;;
8407;SDS011;4241;48.452;9.216;2023-09-19T05:24:20;464.63;;;185.23;;
8407;SDS011;4241;48.452;9.216;2023-09-19T05:26:51;466.10;;;186.57;;
8407;SDS011;4241;48.452;9.216;2023-09-19T05:29:23;465.60;;;185.20;;
8407;SDS011;4241;48.452;9.216;2023-09-19T05:31:50;466.40;;;187.20;;
8407;SDS011;4241;48.452;9.216;2023-09-19T05:34:18;466.07;;;189.80;;
8407;SDS011;4241;48.452;9.216;2023-09-19T05:36:45;469.90;;;196.57;;
8407;SDS011;4241;48.452;9.216;2023-09-19T05:39:13;466.93;;;189.57;;
8407;SDS011;4241;48.452;9.216;2023-09-19T05:41:40;472.00;;;194.87;;
8407;SDS011;4241;48.452;9.216;2023-09-19T05:44:07;470.10;;;194.53;;
8407;SDS011;4241;48.452;9.216;2023-09-19T05:46:35;467.73;;;191.53;;
8407;SDS011;4241;48.452;9.216;2023-09-19T05:49:02;469.73;;;194.80;;
8407;SDS011;4241;48.452;9.216;2023-09-19T05:51:29;465.53;;;189.00;;
8407;SDS011;4241;48.452;9.216;2023-09-19T05:53:56;468.00;;;193.40;;
8407;SDS011;4241;48.452;9.216;2023-09-19T05:56:23;473.23;;;196.10;;
8407;SDS011;4241;48.452;9.216;2023-09-19T05:58:50;477.10;;;198.17;;
8407;SDS011;4241;48.452;9.216;2023-09-19T06:01:17;467.50;;;191.13;;
8407;SDS011;4241;48.452;9.216;2023-09-19T06:03:45;469.43;;;190.97;;
8407;SDS011;4241;48.452;9.216;2023-09-19T06:06:12;474.63;;;198.53;;
8407;SDS011;4241;48.452;9.216;2023-09-19T06:08:39;468.57;;;191.43;;
8407;SDS011;4241;48.452;9.216;2023-09-19T06:11:09;473.17;;;195.90;;
8407;SDS011;4241;48.452;9.216;2023-09-19T06:13:36;469.87;;;191.27;;
8407;SDS011;4241;48.452;9.216;2023-09-19T06:16:04;470.07;;;191.67;;
8407;SDS011;4241;48.452;9.216;2023-09-19T06:18:31;469.30;;;192.20;;
8407;SDS011;4241;48.452;9.216;2023-09-19T06:21:01;467.60;;;191.43;;
8407;SDS011;4241;48.452;9.216;2023-09-19T06:23:30;467.43;;;190.10;;
8407;SDS011;4241;48.452;9.216;2023-09-19T06:25:57;472.77;;;197.50;;
8407;SDS011;4241;48.452;9.216;2023-09-19T06:28:24;468.00;;;191.33;;
8407;SDS011;4241;48.452;9.216;2023-09-19T06:30:53;467.57;;;189.73;;
8407;SDS011;4241;48.452;9.216;2023-09-19T06:33:20;464.70;;;187.90;;
8407;SDS011;4241;48.452;9.216;2023-09-19T06:35:47;473.30;;;195.67;;
8407;SDS011;4241;48.452;9.216;2023-09-19T06:38:19;467.77;;;190.60;;
8407;SDS011;4241;48.452;9.216;2023-09-19T06:40:46;466.73;;;190.03;;
8407;SDS011;4241;48.452;9.216;2023-09-19T06:43:13;465.27;;;188.43;;
8407;SDS011;4241;48.452;9.216;2023-09-19T06:45:39;467.93;;;189.43;;
8407;SDS011;4241;48.452;9.216;2023-09-19T06:48:07;466.37;;;189.93;;
8407;SDS011;4241;48.452;9.216;2023-09-19T06:50:35;468.67;;;191.23;;
8407;SDS011;4241;48.452;9.216;2023-09-19T06:53:03;465.13;;;187.23;;
8407;SDS011;4241;48.452;9.216;2023-09-19T06:55:31;468.03;;;192.57;;
8407;SDS011;4241;48.452;9.216;2023-09-19T06:57:59;472.83;;;197.43;;
8407;SDS011;4241;48.452;9.216;2023-09-19T07:00:26;468.27;;;193.23;;
8407;SDS011;4241;48.452;9.216;2023-09-19T07:02:56;472.97;;;198.47;;
8407;SDS011;4241;48.452;9.216;2023-09-19T07:05:26;468.87;;;192.50;;
8407;SDS011;4241;48.452;9.216;2023-09-19T07:07:53;470.37;;;195.03;;
8407;SDS011;4241;48.452;9.216;2023-09-19T07:10:21;470.43;;;194.47;;
8407;SDS011;4241;48.452;9.216;2023-09-19T07:12:56;473.83;;;197.80;;
8407;SDS011;4241;48.452;9.216;2023-09-19T07:15:23;472.30;;;197.73;;
8407;SDS011;4241;48.452;9.216;2023-09-19T07:17:51;471.90;;;194.87;;
8407;SDS011;4241;48.452;9.216;2023-09-19T07:20:18;474.50;;;201.03;;
8407;SDS011;4241;48.452;9.216;2023-09-19T07:22:46;471.73;;;198.30;;
8407;SDS011;4241;48.452;9.216;2023-09-19T07:25:13;475.10;;;200.67;;
8407;SDS011;4241;48.452;9.216;2023-09-19T07:27:40;475.50;;;200.97;;
8407;SDS011;4241;48.452;9.216;2023-09-19T07:30:09;472.03;;;197.57;;
8407;SDS011;4241;48.452;9.216;2023-09-19T07:32:36;473.83;;;201.10;;
8407;SDS011;4241;48.452;9.216;2023-09-19T07:35:05;474.93;;;200.80;;
8407;SDS011;4241;48.452;9.216;2023-09-19T07:37:33;473.73;;;200.43;;
8407;SDS011;4241;48.452;9.216;2023-09-19T07:40:01;477.07;;;204.33;;
8407;SDS011;4241;48.452;9.216;2023-09-19T07:42:32;473.03;;;197.97;;
8407;SDS011;4241;48.452;9.216;2023-09-19T07:45:00;473.97;;;200.40;;
8407;SDS011;4241;48.452;9.216;2023-09-19T07:47:28;474.20;;;201.37;;
8407;SDS011;4241;48.452;9.216;2023-09-19T07:49:57;473.87;;;198.57;;
8407;SDS011;4241;48.452;9.216;2023-09-19T07:52:25;475.93;;;203.13;;
8407;SDS011;4241;48.452;9.216;2023-09-19T07:54:52;477.40;;;202.27;;
8407;SDS011;4241;48.452;9.216;2023-09-19T07:57:20;478.43;;;205.23;;
8407;SDS011;4241;48.452;9.216;2023-09-19T07:59:47;481.23;;;208.90;;
8407;SDS011;4241;48.452;9.216;2023-09-19T08:02:14;477.63;;;204.57;;
8407;SDS011;4241;48.452;9.216;2023-09-19T08:04:43;479.67;;;208.53;;
8407;SDS011;4241;48.452;9.216;2023-09-19T08:07:11;479.03;;;209.33;;
8407;SDS011;4241;48.452;9.216;2023-09-19T08:09:38;481.37;;;212.37;;
8407;SDS011;4241;48.452;9.216;2023-09-19T08:12:05;480.90;;;214.50;;
8407;SDS011;4241;48.452;9.216;2023-09-19T08:14:35;483.13;;;216.60;;
8407;SDS011;4241;48.452;9.216;2023-09-19T08:17:02;478.67;;;209.03;;
8407;SDS011;4241;48.452;9.216;2023-09-19T08:19:30;481.80;;;215.97;;
8407;SDS011;4241;48.452;9.216;2023-09-19T08:21:59;483.17;;;216.93;;
8407;SDS011;4241;48.452;9.216;2023-09-19T08:24:26;480.63;;;213.33;;
8407;SDS011;4241;48.452;9.216;2023-09-19T08:26:54;481.87;;;216.13;;
8407;SDS011;4241;48.452;9.216;2023-09-19T08:29:21;482.87;;;216.97;;
8407;SDS011;4241;48.452;9.216;2023-09-19T08:31:52;479.93;;;209.33;;
8407;SDS011;4241;48.452;9.216;2023-09-19T08:34:19;478.50;;;210.20;;
8407;SDS011;4241;48.452;9.216;2023-09-19T08:36:47;480.87;;;212.77;;
8407;SDS011;4241;48.452;9.216;2023-09-19T08:39:15;480.00;;;213.37;;
8407;SDS011;4241;48.452;9.216;2023-09-19T08:41:43;480.17;;;212.97;;
8407;SDS011;4241;48.452;9.216;2023-09-19T08:44:10;481.10;;;213.23;;
8407;SDS011;4241;48.452;9.216;2023-09-19T08:46:37;531.53;;;269.30;;
8407;SDS011;4241;48.452;9.216;2023-09-19T08:49:08;481.23;;;213.73;;
8407;SDS011;4241;48.452;9.216;2023-09-19T08:51:40;489.63;;;226.53;;
8407;SDS011;4241;48.452;9.216;2023-09-19T08:54:12;485.27;;;218.23;;
8407;SDS011;4241;48.452;9.216;2023-09-19T08:56:48;482.90;;;218.47;;
8407;SDS011;4241;48.452;9.216;2023-09-19T08:59:17;484.07;;;218.47;;
8407;SDS011;4241;48.452;9.216;2023-09-19T09:01:50;485.27;;;223.90;;
8407;SDS011;4241;48.452;9.216;2023-09-19T09:04:19;486.00;;;226.17;;
8407;SDS011;4241;48.452;9.216;2023-09-19T09:06:46;485.40;;;224.53;;
8407;SDS011;4241;48.452;9.216;2023-09-19T09:09:19;487.07;;;228.43;;
8407;SDS011;4241;48.452;9.216;2023-09-19T09:11:47;486.67;;;229.40;;
8407;SDS011;4241;48.452;9.216;2023-09-19T09:14:16;490.03;;;234.47;;
8407;SDS011;4241;48.452;9.216;2023-09-19T09:16:44;489.47;;;235.17;;
8407;SDS011;4241;48.452;9.216;2023-09-19T09:19:12;486.87;;;233.00;;
8407;SDS011;4241;48.452;9.216;2023-09-19T09:21:39;489.07;;;235.27;;
8407;SDS011;4241;48.452;9.216;2023-09-19T09:27:18;487.03;;;233.30;;
8407;SDS011;4241;48.452;9.216;2023-09-19T09:29:49;490.73;;;237.50;;
8407;SDS011;4241;48.452;9.216;2023-09-19T09:32:20;491.83;;;242.43;;
8407;SDS011;4241;48.452;9.216;2023-09-19T09:34:49;492.50;;;245.07;;
8407;SDS011;4241;48.452;9.216;2023-09-19T09:37:17;491.03;;;241.87;;
8407;SDS011;4241;48.452;9.216;2023-09-19T09:39:50;493.07;;;246.73;;
8407;SDS011;4241;48.452;9.216;2023-09-19T09:42:28;493.30;;;246.20;;
8407;SDS011;4241;48.452;9.216;2023-09-19T09:48:02;490.50;;;247.60;;
8407;SDS011;4241;48.452;9.216;2023-09-19T09:50:31;493.77;;;251.77;;
8407;SDS011;4241;48.452;9.216;2023-09-19T09:53:22;493.70;;;249.60;;
8407;SDS011;4241;48.452;9.216;2023-09-19T09:56:04;494.70;;;250.67;;
8407;SDS011;4241;48.452;9.216;2023-09-19T09:58:32;493.83;;;254.03;;
8407;SDS011;4241;48.452;9.216;2023-09-19T10:01:00;492.57;;;254.70;;
8407;SDS011;4241;48.452;9.216;2023-09-19T10:03:34;494.07;;;253.93;;
8407;SDS011;4241;48.452;9.216;2023-09-19T10:06:07;495.80;;;258.20;;
8407;SDS011;4241;48.452;9.216;2023-09-19T10:09:03;493.83;;;251.40;;
8407;SDS011;4241;48.452;9.216;2023-09-19T10:11:40;498.60;;;259.10;;
8407;SDS011;4241;48.452;9.216;2023-09-19T10:14:09;491.10;;;249.40;;
8407;SDS011;4241;48.452;9.216;2023-09-19T10:16:39;489.93;;;247.43;;
8407;SDS011;4241;48.452;9.216;2023-09-19T10:19:11;489.83;;;249.07;;
8407;SDS011;4241;48.452;9.216;2023-09-19T10:21:47;490.90;;;248.30;;
8407;SDS011;4241;48.452;9.216;2023-09-19T10:24:14;495.00;;;253.23;;
8407;SDS011;4241;48.452;9.216;2023-09-19T10:26:44;493.17;;;249.50;;
8407;SDS011;4241;48.452;9.216;2023-09-19T10:29:12;489.50;;;243.50;;
8407;SDS011;4241;48.452;9.216;2023-09-19T10:31:41;493.33;;;247.77;;
8407;SDS011;4241;48.452;9.216;2023-09-19T10:34:12;491.13;;;241.03;;
8407;SDS011;4241;48.452;9.216;2023-09-19T10:36:43;490.53;;;244.07;;
8407;SDS011;4241;48.452;9.216;2023-09-19T10:39:12;495.23;;;247.13;;
8407;SDS011;4241;48.452;9.216;2023-09-19T10:41:47;493.27;;;245.07;;
8407;SDS011;4241;48.452;9.216;2023-09-19T10:44:20;495.07;;;248.47;;
8407;SDS011;4241;48.452;9.216;2023-09-19T10:46:50;489.67;;;241.67;;
8407;SDS011;4241;48.452;9.216;2023-09-19T10:49:18;487.60;;;237.93;;
8407;SDS011;4241;48.452;9.216;2023-09-19T10:51:45;490.43;;;243.33;;
8407;SDS011;4241;48.452;9.216;2023-09-19T10:54:16;488.30;;;241.73;;
8407;SDS011;4241;48.452;9.216;2023-09-19T10:56:48;489.23;;;242.47;;
8407;SDS011;4241;48.452;9.216;2023-09-19T10:59:17;490.37;;;246.53;;
8407;SDS011;4241;48.452;9.216;2023-09-19T11:01:46;494.03;;;254.33;;
8407;SDS011;4241;48.452;9.216;2023-09-19T11:04:22;493.20;;;258.37;;
8407;SDS011;4241;48.452;9.216;2023-09-19T11:07:03;496.63;;;263.47;;
8407;SDS011;4241;48.452;9.216;2023-09-19T11:09:43;493.57;;;259.53;;
8407;SDS011;4241;48.452;9.216;2023-09-19T11:12:13;494.93;;;265.07;;
8407;SDS011;4241;48.452;9.216;2023-09-19T11:21:38;497.10;;;269.33;;
8407;SDS011;4241;48.452;9.216;2023-09-19T11:24:29;497.33;;;271.47;;
8407;SDS011;4241;48.452;9.216;2023-09-19T11:27:15;497.10;;;272.47;;
8407;SDS011;4241;48.452;9.216;2023-09-19T11:29:43;502.13;;;279.77;;
8407;SDS011;4241;48.452;9.216;2023-09-19T11:32:10;497.60;;;273.30;;
8407;SDS011;4241;48.452;9.216;2023-09-19T11:34:38;494.67;;;266.83;;
8407;SDS011;4241;48.452;9.216;2023-09-19T11:40:44;501.17;;;275.07;;
8407;SDS011;4241;48.452;9.216;2023-09-19T11:43:33;509.33;;;288.00;;
8407;SDS011;4241;48.452;9.216;2023-09-19T11:46:07;498.67;;;278.40;;
8407;SDS011;4241;48.452;9.216;2023-09-19T11:48:39;498.83;;;279.90;;
8407;SDS011;4241;48.452;9.216;2023-09-19T11:51:13;499.30;;;283.90;;
8407;SDS011;4241;48.452;9.216;2023-09-19T11:53:52;501.07;;;286.63;;
8407;SDS011;4241;48.452;9.216;2023-09-19T11:56:20;499.03;;;282.23;;
8407;SDS011;4241;48.452;9.216;2023-09-19T11:58:51;499.30;;;283.43;;
8407;SDS011;4241;48.452;9.216;2023-09-19T12:01:24;500.13;;;286.53;;
8407;SDS011;4241;48.452;9.216;2023-09-19T12:03:54;502.43;;;293.50;;
8407;SDS011;4241;48.452;9.216;2023-09-19T12:06:23;500.50;;;293.03;;
8407;SDS011;4241;48.452;9.216;2023-09-19T12:08:50;502.57;;;293.13;;
8407;SDS011;4241;48.452;9.216;2023-09-19T12:11:19;501.33;;;291.27;;
8407;SDS011;4241;48.452;9.216;2023-09-19T12:13:48;504.30;;;292.27;;
8407;SDS011;4241;48.452;9.216;2023-09-19T12:16:18;497.47;;;285.20;;
8407;SDS011;4241;48.452;9.216;2023-09-19T12:18:48;498.63;;;284.87;;
8407;SDS011;4241;48.452;9.216;2023-09-19T12:21:25;497.50;;;281.23;;
8407;SDS011;4241;48.452;9.216;2023-09-19T12:23:59;502.97;;;285.97;;
8407;SDS011;4241;48.452;9.216;2023-09-19T12:26:39;497.67;;;280.57;;
8407;SDS011;4241;48.452;9.216;2023-09-19T12:29:15;495.53;;;277.07;;
8407;SDS011;4241;48.452;9.216;2023-09-19T12:31:53;498.93;;;281.60;;
8407;SDS011;4241;48.452;9.216;2023-09-19T12:34:23;497.93;;;279.73;;
8407;SDS011;4241;48.452;9.216;2023-09-19T12:39:38;496.80;;;276.97;;
8407;SDS011;4241;48.452;9.216;2023-09-19T12:42:08;506.27;;;288.50;;
8407;SDS011;4241;48.452;9.216;2023-09-19T12:44:36;499.13;;;281.57;;
8407;SDS011;4241;48.452;9.216;2023-09-19T12:47:13;502.50;;;282.80;;
8407;SDS011;4241;48.452;9.216;2023-09-19T12:52:42;498.33;;;281.63;;
8407;SDS011;4241;48.452;9.216;2023-09-19T12:55:22;501.97;;;285.40;;
8407;SDS011;4241;48.452;9.216;2023-09-19T12:57:59;499.20;;;280.53;;
8407;SDS011;4241;48.452;9.216;2023-09-19T13:00:34;497.07;;;276.23;;
8407;SDS011;4241;48.452;9.216;2023-09-19T13:03:13;503.10;;;281.53;;
8407;SDS011;4241;48.452;9.216;2023-09-19T13:05:46;501.83;;;280.93;;
8407;SDS011;4241;48.452;9.216;2023-09-19T13:08:19;495.27;;;270.60;;
8407;SDS011;4241;48.452;9.216;2023-09-19T13:11:01;497.80;;;278.30;;
8407;SDS011;4241;48.452;9.216;2023-09-19T13:13:29;499.17;;;277.40;;
8407;SDS011;4241;48.452;9.216;2023-09-19T13:15:55;501.47;;;278.53;;
8407;SDS011;4241;48.452;9.216;2023-09-19T13:18:24;496.70;;;273.80;;
8407;SDS011;4241;48.452;9.216;2023-09-19T13:21:05;504.40;;;282.87;;
8407;SDS011;4241;48.452;9.216;2023-09-19T13:23:33;501.30;;;278.37;;
8407;SDS011;4241;48.452;9.216;2023-09-19T13:26:02;497.00;;;274.10;;
8407;SDS011;4241;48.452;9.216;2023-09-19T13:28:30;497.47;;;274.63;;
8407;SDS011;4241;48.452;9.216;2023-09-19T13:30:57;496.93;;;273.17;;
8407;SDS011;4241;48.452;9.216;2023-09-19T13:33:25;495.80;;;272.57;;
8407;SDS011;4241;48.452;9.216;2023-09-19T13:35:52;501.50;;;280.40;;
8407;SDS011;4241;48.452;9.216;2023-09-19T13:38:20;496.77;;;273.47;;
8407;SDS011;4241;48.452;9.216;2023-09-19T13:40:47;531.77;;;307.43;;
8407;SDS011;4241;48.452;9.216;2023-09-19T13:43:14;497.97;;;277.43;;
8407;SDS011;4241;48.452;9.216;2023-09-19T13:45:41;502.63;;;283.03;;
8407;SDS011;4241;48.452;9.216;2023-09-19T13:48:08;497.20;;;277.97;;
8407;SDS011;4241;48.452;9.216;2023-09-19T13:50:37;498.00;;;279.03;;
8407;SDS011;4241;48.452;9.216;2023-09-19T13:53:07;497.13;;;275.07;;
8407;SDS011;4241;48.452;9.216;2023-09-19T13:55:34;498.90;;;277.47;;
8407;SDS011;4241;48.452;9.216;2023-09-19T13:58:01;497.23;;;276.53;;
8407;SDS011;4241;48.452;9.216;2023-09-19T14:00:29;499.07;;;279.00;;
8407;SDS011;4241;48.452;9.216;2023-09-19T14:02:59;498.90;;;276.37;;
8407;SDS011;4241;48.452;9.216;2023-09-19T14:05:26;497.87;;;276.27;;
8407;SDS011;4241;48.452;9.216;2023-09-19T14:07:54;495.80;;;270.37;;
8407;SDS011;4241;48.452;9.216;2023-09-19T14:10:22;497.07;;;273.33;;
8407;SDS011;4241;48.452;9.216;2023-09-19T14:12:50;516.10;;;292.43;;
8407;SDS011;4241;48.452;9.216;2023-09-19T14:15:17;496.37;;;270.27;;
8407;SDS011;4241;48.452;9.216;2023-09-19T14:17:44;497.20;;;270.73;;
8407;SDS011;4241;48.452;9.216;2023-09-19T14:20:11;498.13;;;270.27;;
8407;SDS011;4241;48.452;9.216;2023-09-19T14:22:37;501.10;;;273.27;;
8407;SDS011;4241;48.452;9.216;2023-09-19T14:25:06;494.07;;;264.03;;
8407;SDS011;4241;48.452;9.216;2023-09-19T14:27:34;494.63;;;267.23;;
8407;SDS011;4241;48.452;9.216;2023-09-19T14:30:01;495.50;;;267.93;;
8407;SDS011;4241;48.452;9.216;2023-09-19T14:32:29;494.67;;;267.00;;
8407;SDS011;4241;48.452;9.216;2023-09-19T14:34:56;497.47;;;271.57;;
8407;SDS011;4241;48.452;9.216;2023-09-19T14:37:22;495.20;;;265.67;;
8407;SDS011;4241;48.452;9.216;2023-09-19T14:39:49;495.70;;;269.30;;
8407;SDS011;4241;48.452;9.216;2023-09-19T14:42:17;495.83;;;268.60;;
8407;SDS011;4241;48.452;9.216;2023-09-19T14:44:44;496.00;;;267.93;;
8407;SDS011;4241;48.452;9.216;2023-09-19T14:47:12;496.77;;;267.30;;
8407;SDS011;4241;48.452;9.216;2023-09-19T14:49:39;495.57;;;265.27;;
8407;SDS011;4241;48.452;9.216;2023-09-19T14:52:07;498.00;;;267.57;;
8407;SDS011;4241;48.452;9.216;2023-09-19T14:54:34;493.93;;;263.37;;
8407;SDS011;4241;48.452;9.216;2023-09-19T14:57:03;493.83;;;263.83;;
8407;SDS011;4241;48.452;9.216;2023-09-19T14:59:31;495.40;;;264.43;;
8407;SDS011;4241;48.452;9.216;2023-09-19T15:01:59;497.87;;;268.30;;